Time;durP1;ratioP1;P1;durP2;ratioP2;P2;SDS_P1;SDS_P2;PMS_P1;PMS_P2;Temp;Humidity;BMP_temperature;BMP_pressure;BME280_temperature;BME280_humidity;BME280_pressure;Samples;Min_cycle;Max_cycle;Signal;HPM_P1;HPM_P2
2021/04/17 00:05:21;;;;;;;22.10;16.90;;;;;;;3.13;88.45;98724.83;469220;1196;103290;-42
2021/04/17 00:15:29;;;;;;;14.90;10.70;;;;;;;3.20;88.30;98711.84;468595;1196;103257;-42
2021/04/17 00:25:32;;;;;;;14.33;10.43;;;;;;;3.26;88.37;98705.89;468066;1196;103220;-41
2021/04/17 00:35:37;;;;;;;11.10;9.50;;;;;;;3.27;88.32;98703.09;468450;1196;103213;-42
2021/04/17 00:45:41;;;;;;;12.75;9.25;;;;;;;3.25;88.50;98706.88;468522;1196;103325;-41
2021/04/17 00:55:46;;;;;;;13.47;9.60;;;;;;;3.24;88.68;98710.48;468591;1196;103411;-42
2021/04/17 01:05:55;;;;;;;14.13;9.40;;;;;;;3.29;88.35;98705.52;468413;1195;103184;-41
2021/04/17 01:16:00;;;;;;;12.20;7.97;;;;;;;3.36;88.71;98716.90;468215;1196;103332;-43
2021/04/17 01:38:12;;;;;;;12.83;10.07;;;;;;;3.35;88.40;98700.41;468174;1196;103200;-41
2021/04/17 01:48:20;;;;;;;9.90;7.85;;;;;;;3.36;88.63;98704.64;468954;1196;103492;-44
2021/04/17 01:58:27;;;;;;;14.40;9.80;;;;;;;3.35;88.44;98695.18;468380;1196;103571;-42
2021/04/17 02:08:35;;;;;;;13.97;10.17;;;;;;;3.38;88.70;98689.59;468735;1195;103252;-42
2021/04/17 02:18:46;;;;;;;14.97;12.00;;;;;;;3.37;88.34;98697.61;468892;1196;103213;-41
2021/04/17 02:28:50;;;;;;;13.25;9.05;;;;;;;3.39;88.73;98690.39;468997;1196;103596;-41
2021/04/17 02:38:55;;;;;;;10.27;7.17;;;;;;;3.32;88.66;98692.13;469328;1196;103757;-42
2021/04/17 02:48:59;;;;;;;12.55;8.45;;;;;;;3.26;88.97;98680.56;468615;1196;103565;-42
2021/04/17 02:59:04;;;;;;;12.00;7.45;;;;;;;3.25;89.34;98693.81;468951;1196;103208;-41
2021/04/17 03:09:08;;;;;;;12.65;8.80;;;;;;;3.23;89.18;98688.77;468948;1196;104672;-41
2021/04/17 03:19:12;;;;;;;14.57;9.60;;;;;;;3.24;89.09;98703.45;468176;1196;103251;-42
2021/04/17 03:29:17;;;;;;;15.85;10.60;;;;;;;3.26;88.90;98708.50;468295;1196;103254;-41
2021/04/17 03:39:21;;;;;;;14.90;9.75;;;;;;;3.28;89.11;98702.10;468630;1196;103523;-42
2021/04/17 03:49:25;;;;;;;15.53;9.77;;;;;;;3.33;88.88;98714.65;468858;1196;103194;-42
2021/04/17 03:59:29;;;;;;;14.13;8.33;;;;;;;3.35;88.86;98708.25;468686;1196;104687;-42
2021/04/17 04:09:58;;;;;;;15.70;11.00;;;;;;;3.35;88.99;98720.50;468398;1195;103207;-41
2021/04/17 04:20:03;;;;;;;14.77;10.43;;;;;;;3.37;88.77;98732.39;468395;1196;103229;-41
2021/04/17 04:30:12;;;;;;;13.73;10.90;;;;;;;3.34;88.84;98729.34;469129;1196;103552;-41
2021/04/17 04:40:15;;;;;;;52.57;29.33;;;;;;;3.38;88.67;98741.05;469145;1196;103223;-42
2021/04/17 04:50:19;;;;;;;17.43;11.20;;;;;;;3.36;89.19;98754.30;468824;1196;103270;-42
2021/04/17 05:00:24;;;;;;;15.00;10.60;;;;;;;3.40;89.04;98754.75;469067;1196;103621;-41
2021/04/17 05:10:28;;;;;;;20.45;12.65;;;;;;;3.33;88.74;98746.02;468985;1196;103220;-41
2021/04/17 05:20:33;;;;;;;24.70;14.80;;;;;;;3.35;89.55;98738.80;468534;1196;103206;-43
2021/04/17 05:30:37;;;;;;;20.87;12.63;;;;;;;3.42;88.63;98749.34;468435;1195;103207;-42
2021/04/17 05:40:41;;;;;;;21.90;11.55;;;;;;;3.35;88.80;98757.09;468315;1196;103520;-41
2021/04/17 05:50:46;;;;;;;28.80;15.53;;;;;;;3.36;89.23;98756.91;468832;1195;103568;-41
2021/04/17 06:00:50;;;;;;;24.55;13.95;;;;;;;3.40;89.28;98757.36;468544;1196;103287;-41
2021/04/17 06:10:54;;;;;;;24.17;14.83;;;;;;;3.40;89.30;98752.13;468607;1196;103584;-42
2021/04/17 06:21:02;;;;;;;23.87;14.13;;;;;;;3.46;88.79;98750.59;468718;1196;103244;-41
2021/04/17 06:31:07;;;;;;;24.80;12.80;;;;;;;3.46;89.35;98750.59;468569;1196;103236;-41
2021/04/17 06:41:13;;;;;;;28.97;14.33;;;;;;;3.50;89.32;98762.30;468501;1196;103207;-41
2021/04/17 06:51:20;;;;;;;25.50;14.70;;;;;;;3.57;89.40;98764.03;468554;1196;103610;-42
2021/04/17 07:01:24;;;;;;;26.13;15.37;;;;;;;3.56;89.11;98772.06;468202;1196;104681;-41
2021/04/17 07:11:28;;;;;;;24.73;14.37;;;;;;;3.69;89.70;98772.21;468362;1196;103216;-42
2021/04/17 07:21:32;;;;;;;26.30;16.77;;;;;;;;;;468320;1196;103226;-42
2021/04/17 07:31:36;;;;;;;24.57;14.93;;;;;;;3.89;89.21;98768.04;468881;1196;103520;-42
2021/04/17 07:41:41;;;;;;;27.93;14.90;;;;;;;3.98;89.38;98776.58;468826;1196;103217;-42
2021/04/17 07:51:57;;;;;;;25.20;14.97;;;;;;;4.03;89.29;98778.67;468281;1195;103216;-41
2021/04/17 08:02:02;;;;;;;24.87;14.83;;;;;;;4.28;89.73;98780.77;468359;1196;103580;-42
2021/04/17 08:23:42;;;;;;;16.97;10.67;;;;;;;4.74;89.19;98784.83;469466;1196;103497;-42
2021/04/17 08:34:07;;;;;;;16.70;10.17;;;;;;;4.92;89.03;98795.64;468086;1196;103574;-42
2021/04/17 08:44:28;;;;;;;22.30;14.33;;;;;;;4.77;88.96;98792.31;468522;1196;103207;-42
2021/04/17 08:54:32;;;;;;;25.87;15.23;;;;;;;4.72;89.40;98784.99;468738;1196;103622;-42
2021/04/17 09:04:55;;;;;;;16.37;10.30;;;;;;;4.80;88.60;98797.17;468855;1196;104719;-42
2021/04/17 09:15:00;;;;;;;13.13;10.50;;;;;;;4.77;88.62;98789.69;469097;1196;103501;-42
2021/04/17 09:25:08;;;;;;;16.27;11.20;;;;;;;4.94;88.82;98794.45;469096;1196;103583;-41
2021/04/17 09:35:19;;;;;;;15.97;10.83;;;;;;;4.90;88.50;98797.65;469116;1196;103501;-41
2021/04/17 09:45:33;;;;;;;20.27;13.03;;;;;;;4.93;88.64;98800.70;469307;1196;103213;-41
2021/04/17 09:55:51;;;;;;;24.37;15.90;;;;;;;4.86;88.66;98807.70;468562;1196;103218;-42
2021/04/17 10:05:57;;;;;;;15.83;12.43;;;;;;;4.85;88.45;98807.89;469119;1196;104390;-43
2021/04/17 10:16:02;;;;;;;20.37;13.37;;;;;;;4.97;88.79;98795.07;468744;1196;103225;-42
2021/04/17 10:26:06;;;;;;;19.03;14.10;;;;;;;5.06;88.39;98788.72;468396;1196;103529;-41
2021/04/17 10:36:15;;;;;;;18.73;13.83;;;;;;;5.12;88.22;98783.51;468261;1196;104678;-41
2021/04/17 10:46:19;;;;;;;14.90;11.15;;;;;;;5.20;88.43;98793.88;468314;1196;103219;-41
2021/04/17 10:56:24;;;;;;;18.50;13.23;;;;;;;5.21;88.24;98794.69;468836;1196;103261;-40
2021/04/17 11:06:30;;;;;;;19.53;11.80;;;;;;;5.21;88.43;98802.55;467962;1196;103200;-42
2021/04/17 11:16:35;;;;;;;21.83;15.57;;;;;;;5.07;88.37;98813.92;468361;1196;103194;-41
2021/04/17 11:26:40;;;;;;;14.53;10.50;;;;;;;5.03;87.98;98810.88;468897;1196;103139;-41
2021/04/17 11:36:46;;;;;;;16.35;10.75;;;;;;;5.17;88.28;98814.39;468502;1196;103526;-42
2021/04/17 11:46:54;;;;;;;16.20;11.15;;;;;;;5.25;88.13;98822.13;468156;1196;103599;-41
2021/04/17 11:56:58;;;;;;;13.17;10.37;;;;;;;5.24;87.97;98821.32;468516;1196;103226;-41
2021/04/17 12:07:03;;;;;;;40.13;22.20;;;;;;;5.35;88.23;98824.41;468552;1196;103520;-40
2021/04/17 12:17:07;;;;;;;21.57;14.37;;;;;;;5.38;88.42;98824.83;469262;1196;103235;-42
2021/04/17 12:27:15;;;;;;;44.67;28.83;;;;;;;5.17;88.25;98825.69;469312;1196;103829;-42
2021/04/17 12:37:20;;;;;;;17.83;11.93;;;;;;;5.14;87.86;98833.13;468590;1196;103539;-42
2021/04/17 12:47:24;;;;;;;29.47;19.23;;;;;;;5.19;88.14;98834.16;468304;1196;103255;-41
2021/04/17 12:57:29;;;;;;;22.20;13.95;;;;;;;5.18;88.16;98840.41;468771;1196;103207;-41
2021/04/17 13:07:34;;;;;;;21.17;14.07;;;;;;;5.12;87.65;98835.13;468483;1196;103725;-41
2021/04/17 13:17:38;;;;;;;29.00;15.90;;;;;;;5.10;87.76;98834.50;468283;1196;103206;-41
2021/04/17 13:27:44;;;;;;;22.40;13.40;;;;;;;5.04;88.36;98840.52;468072;1196;103210;-41
2021/04/17 13:37:48;;;;;;;28.30;19.20;;;;;;;5.00;88.48;98842.70;468478;1196;103257;-41
2021/04/17 13:47:53;;;;;;;32.67;16.97;;;;;;;4.99;88.63;98842.89;468240;1196;103571;-40
2021/04/17 13:57:57;;;;;;;29.00;17.13;;;;;;;4.88;88.42;98850.23;468289;1196;103228;-43
2021/04/17 14:08:02;;;;;;;21.40;14.07;;;;;;;4.96;88.43;98848.48;468306;1196;104787;-41
2021/04/17 14:18:07;;;;;;;18.10;12.05;;;;;;;5.02;88.25;98851.19;468683;1196;103152;-43
2021/04/17 14:28:31;;;;;;;23.50;15.90;;;;;;;5.05;88.53;98847.38;468260;1196;103386;-41
2021/04/17 14:38:37;;;;;;;22.47;15.87;;;;;;;5.07;88.26;98846.18;468440;1196;103549;-43
2021/04/17 14:48:47;;;;;;;23.47;14.40;;;;;;;5.00;88.01;98844.52;468526;1196;103589;-41
2021/04/17 14:58:51;;;;;;;28.78;17.65;;;;;;;4.90;88.25;98842.19;469063;1196;103562;-42
2021/04/17 15:08:55;;;;;;;31.27;18.20;;;;;;;4.81;88.44;98849.38;468309;1196;103212;-41
2021/04/17 15:19:01;;;;;;;27.83;17.23;;;;;;;4.78;88.44;98841.89;468371;1196;103284;-41
2021/04/17 15:29:08;;;;;;;44.20;28.35;;;;;;;4.75;88.28;98844.08;468097;1196;103526;-41
2021/04/17 15:39:13;;;;;;;34.77;22.23;;;;;;;4.78;88.40;98836.66;468629;1196;104682;-41
2021/04/17 15:49:17;;;;;;;55.80;34.90;;;;;;;4.82;88.32;98837.90;468058;1196;103280;-42
2021/04/17 16:20:08;;;;;;;34.80;18.43;;;;;;;4.79;88.96;98822.56;468805;1196;103580;-42
2021/04/17 16:30:13;;;;;;;28.15;17.40;;;;;;;4.90;87.97;98823.84;468719;1196;103205;-41
2021/04/17 16:40:20;;;;;;;72.57;44.60;;;;;;;5.00;88.28;98819.12;468860;1196;103216;-41
2021/04/17 16:50:25;;;;;;;61.60;38.77;;;;;;;5.02;88.38;98822.36;468667;1196;103267;-41
2021/04/17 17:00:29;;;;;;;57.47;34.70;;;;;;;4.97;88.30;98819.50;469098;1196;103332;-42
2021/04/17 17:10:33;;;;;;;41.37;22.53;;;;;;;4.94;88.04;98817.23;468211;1196;103331;-41
2021/04/17 17:20:39;;;;;;;42.40;24.57;;;;;;;4.93;87.77;98831.33;468256;1196;104291;-41
2021/04/17 17:30:44;;;;;;;44.55;25.00;;;;;;;4.93;88.19;98824.28;468429;1196;103491;-41
2021/04/17 17:40:48;;;;;;;31.85;20.95;;;;;;;4.87;87.97;98830.28;469023;1196;103504;-41
2021/04/17 17:50:52;;;;;;;25.10;16.05;;;;;;;4.82;88.27;98842.33;468050;1196;103218;-42
2021/04/17 18:00:57;;;;;;;30.37;19.80;;;;;;;4.84;88.11;98841.14;468227;1196;103689;-42
2021/04/17 18:11:02;;;;;;;49.77;28.90;;;;;;;4.99;88.25;98855.99;468557;1196;103210;-41
2021/04/17 18:21:05;;;;;;;77.65;44.40;;;;;;;4.89;88.20;98862.34;468407;1196;103232;-41
2021/04/17 18:41:31;;;;;;;38.27;23.07;;;;;;;4.75;88.07;98876.33;468381;1196;104530;-41
2021/04/17 18:51:36;;;;;;;59.20;35.15;;;;;;;4.76;88.16;98895.48;468985;1196;103225;-42
2021/04/17 19:01:41;;;;;;;66.17;39.73;;;;;;;4.84;88.15;98895.34;468070;1196;103244;-41
2021/04/17 19:11:45;;;;;;;55.00;34.80;;;;;;;5.07;88.49;98884.69;468330;1196;103219;-41
2021/04/17 19:21:49;;;;;;;83.40;47.20;;;;;;;4.92;88.19;98869.83;468207;1196;103661;-42
2021/04/17 19:31:54;;;;;;;85.27;47.50;;;;;;;4.87;88.27;98871.39;468971;1196;103244;-41
2021/04/17 19:41:59;;;;;;;83.63;43.70;;;;;;;4.76;88.25;98875.33;468549;1196;103587;-41
2021/04/17 19:52:03;;;;;;;62.60;32.73;;;;;;;4.74;88.20;98876.52;468515;1196;103261;-41
2021/04/17 20:02:09;;;;;;;42.70;25.50;;;;;;;4.76;87.64;98892.86;468369;1196;103273;-42
2021/04/17 20:12:14;;;;;;;53.23;33.33;;;;;;;4.86;88.25;98883.68;469049;1196;103210;-42
2021/04/17 20:22:18;;;;;;;76.73;37.97;;;;;;;4.90;88.23;98874.44;468465;1196;103226;-43
2021/04/17 20:32:23;;;;;;;93.13;48.73;;;;;;;5.02;88.51;98882.63;468666;1196;103251;-41
2021/04/17 20:42:28;;;;;;;94.20;45.40;;;;;;;4.82;88.13;98890.30;468807;1196;103328;-42
2021/04/17 20:52:33;;;;;;;58.87;31.20;;;;;;;4.81;88.00;98896.53;469028;1196;103222;-41
2021/04/17 21:02:50;;;;;;;62.97;32.90;;;;;;;4.89;88.39;98896.41;469178;1196;103219;-42
2021/04/17 21:12:54;;;;;;;66.13;38.87;;;;;;;4.93;88.04;98895.03;468259;1196;103277;-42
2021/04/17 21:22:58;;;;;;;63.20;35.00;;;;;;;5.12;88.21;98893.59;468551;1196;103194;-41
2021/04/17 21:33:02;;;;;;;84.40;44.63;;;;;;;5.02;88.01;98894.92;468819;1196;103554;-41
2021/04/17 21:43:07;;;;;;;82.43;40.83;;;;;;;5.03;88.16;98893.92;468387;1196;103520;-41
2021/04/17 21:53:11;;;;;;;74.00;39.67;;;;;;;4.87;88.05;98892.34;468175;1196;103228;-41
2021/04/17 22:03:16;;;;;;;66.50;36.33;;;;;;;4.88;87.83;98879.06;468624;1196;103539;-41
2021/04/17 22:13:21;;;;;;;69.00;36.10;;;;;;;4.94;87.76;98873.06;468250;1196;103232;-41
2021/04/17 22:23:25;;;;;;;67.83;35.23;;;;;;;5.10;88.75;98871.20;468730;1196;103222;-41
2021/04/17 22:33:29;;;;;;;66.45;36.15;;;;;;;5.23;88.16;98868.70;468282;1196;103222;-42
2021/04/17 22:43:33;;;;;;;82.93;43.83;;;;;;;5.11;88.05;98872.82;468268;1196;103517;-41
2021/04/17 22:53:42;;;;;;;83.00;41.37;;;;;;;5.02;88.07;98860.86;468327;1196;103212;-42
2021/04/17 23:03:49;;;;;;;66.97;37.10;;;;;;;5.05;88.02;98848.18;468731;1196;104690;-42
2021/04/17 23:13:54;;;;;;;62.85;31.50;;;;;;;5.13;87.92;98855.09;468820;1196;103561;-42
2021/04/17 23:23:58;;;;;;;72.27;33.63;;;;;;;5.12;88.06;98842.98;468714;1196;103181;-42
2021/04/17 23:34:03;;;;;;;83.23;40.47;;;;;;;5.14;87.99;98830.50;468488;1196;103232;-41
2021/04/17 23:54:26;;;;;;;113.97;49.50;;;;;;;5.03;87.97;98837.08;468891;1196;103249;-41
